sensor_id;sensor_type;location;lat;lon;timestamp;temperature;humidity
45785;DHT22;31489;51.404;5.474;2022-07-23T00:01:32;22.40;63.90
45785;DHT22;31489;51.404;5.474;2022-07-23T00:03:58;22.40;64.00
45785;DHT22;31489;51.404;5.474;2022-07-23T00:06:24;22.30;64.00
45785;DHT22;31489;51.404;5.474;2022-07-23T00:08:51;22.30;64.10
45785;DHT22;31489;51.404;5.474;2022-07-23T00:11:17;22.20;64.10
45785;DHT22;31489;51.404;5.474;2022-07-23T00:13:43;22.20;64.20
45785;DHT22;31489;51.404;5.474;2022-07-23T00:16:09;22.20;64.30
45785;DHT22;31489;51.404;5.474;2022-07-23T00:18:35;22.10;64.20
45785;DHT22;31489;51.404;5.474;2022-07-23T00:21:01;22.10;64.20
45785;DHT22;31489;51.404;5.474;2022-07-23T00:23:26;22.10;64.40
45785;DHT22;31489;51.404;5.474;2022-07-23T00:25:55;22.00;64.50
45785;DHT22;31489;51.404;5.474;2022-07-23T00:28:21;22.00;64.60
45785;DHT22;31489;51.404;5.474;2022-07-23T00:30:47;22.00;64.70
45785;DHT22;31489;51.404;5.474;2022-07-23T00:33:12;21.90;64.70
45785;DHT22;31489;51.404;5.474;2022-07-23T00:35:40;21.90;64.80
45785;DHT22;31489;51.404;5.474;2022-07-23T00:38:08;21.80;64.90
45785;DHT22;31489;51.404;5.474;2022-07-23T00:40:35;21.80;64.90
45785;DHT22;31489;51.404;5.474;2022-07-23T00:43:02;21.80;65.00
45785;DHT22;31489;51.404;5.474;2022-07-23T00:45:28;21.80;65.10
45785;DHT22;31489;51.404;5.474;2022-07-23T00:47:54;21.70;65.10
45785;DHT22;31489;51.404;5.474;2022-07-23T00:50:20;21.70;65.10
45785;DHT22;31489;51.404;5.474;2022-07-23T00:52:46;21.70;65.20
45785;DHT22;31489;51.404;5.474;2022-07-23T00:55:12;21.70;65.20
45785;DHT22;31489;51.404;5.474;2022-07-23T00:57:39;21.70;65.30
45785;DHT22;31489;51.404;5.474;2022-07-23T01:00:09;21.60;65.30
45785;DHT22;31489;51.404;5.474;2022-07-23T01:02:36;21.60;65.30
45785;DHT22;31489;51.404;5.474;2022-07-23T01:05:03;21.60;65.40
45785;DHT22;31489;51.404;5.474;2022-07-23T01:07:29;21.60;65.50
45785;DHT22;31489;51.404;5.474;2022-07-23T01:09:55;21.50;65.50
45785;DHT22;31489;51.404;5.474;2022-07-23T01:12:21;21.50;65.60
45785;DHT22;31489;51.404;5.474;2022-07-23T01:14:57;21.40;66.20
45785;DHT22;31489;51.404;5.474;2022-07-23T01:17:23;21.40;65.70
45785;DHT22;31489;51.404;5.474;2022-07-23T01:19:49;21.40;65.70
45785;DHT22;31489;51.404;5.474;2022-07-23T01:22:15;21.40;65.80
45785;DHT22;31489;51.404;5.474;2022-07-23T01:24:43;21.40;65.80
45785;DHT22;31489;51.404;5.474;2022-07-23T01:27:08;21.30;65.80
45785;DHT22;31489;51.404;5.474;2022-07-23T01:29:34;21.30;65.80
45785;DHT22;31489;51.404;5.474;2022-07-23T01:32:00;21.30;65.90
45785;DHT22;31489;51.404;5.474;2022-07-23T01:34:26;21.30;65.90
45785;DHT22;31489;51.404;5.474;2022-07-23T01:36:52;21.20;65.90
45785;DHT22;31489;51.404;5.474;2022-07-23T01:39:17;21.20;65.90
45785;DHT22;31489;51.404;5.474;2022-07-23T01:41:43;21.20;65.90
45785;DHT22;31489;51.404;5.474;2022-07-23T01:44:09;21.20;66.00
45785;DHT22;31489;51.404;5.474;2022-07-23T01:46:34;21.10;66.00
45785;DHT22;31489;51.404;5.474;2022-07-23T01:49:00;21.10;66.10
45785;DHT22;31489;51.404;5.474;2022-07-23T01:51:26;21.10;66.10
45785;DHT22;31489;51.404;5.474;2022-07-23T01:53:52;21.10;66.10
45785;DHT22;31489;51.404;5.474;2022-07-23T01:56:18;21.10;66.20
45785;DHT22;31489;51.404;5.474;2022-07-23T01:58:46;21.00;66.20
45785;DHT22;31489;51.404;5.474;2022-07-23T02:01:12;21.00;66.20
45785;DHT22;31489;51.404;5.474;2022-07-23T02:03:38;21.00;66.20
45785;DHT22;31489;51.404;5.474;2022-07-23T02:06:04;21.00;66.30
45785;DHT22;31489;51.404;5.474;2022-07-23T02:08:30;20.90;66.30
45785;DHT22;31489;51.404;5.474;2022-07-23T02:10:58;20.90;66.30
45785;DHT22;31489;51.404;5.474;2022-07-23T02:13:23;20.90;66.30
45785;DHT22;31489;51.404;5.474;2022-07-23T02:15:49;20.90;66.40
45785;DHT22;31489;51.404;5.474;2022-07-23T02:18:14;20.80;66.40
45785;DHT22;31489;51.404;5.474;2022-07-23T02:20:41;20.80;66.50
45785;DHT22;31489;51.404;5.474;2022-07-23T02:23:06;20.80;66.50
45785;DHT22;31489;51.404;5.474;2022-07-23T02:25:33;20.70;66.50
45785;DHT22;31489;51.404;5.474;2022-07-23T02:27:59;20.80;66.60
45785;DHT22;31489;51.404;5.474;2022-07-23T02:30:25;20.70;66.60
45785;DHT22;31489;51.404;5.474;2022-07-23T02:32:50;20.70;66.60
45785;DHT22;31489;51.404;5.474;2022-07-23T02:35:16;20.60;66.60
45785;DHT22;31489;51.404;5.474;2022-07-23T02:37:41;20.60;66.70
45785;DHT22;31489;51.404;5.474;2022-07-23T02:40:07;20.60;66.70
45785;DHT22;31489;51.404;5.474;2022-07-23T02:42:33;20.60;66.70
45785;DHT22;31489;51.404;5.474;2022-07-23T02:44:59;20.60;66.70
45785;DHT22;31489;51.404;5.474;2022-07-23T02:47:24;20.60;66.80
45785;DHT22;31489;51.404;5.474;2022-07-23T02:49:50;20.60;66.90
45785;DHT22;31489;51.404;5.474;2022-07-23T02:52:16;20.50;66.80
45785;DHT22;31489;51.404;5.474;2022-07-23T02:54:41;20.50;66.80
45785;DHT22;31489;51.404;5.474;2022-07-23T02:57:07;20.50;66.80
45785;DHT22;31489;51.404;5.474;2022-07-23T02:59:32;20.50;66.90
45785;DHT22;31489;51.404;5.474;2022-07-23T03:01:58;20.40;66.80
45785;DHT22;31489;51.404;5.474;2022-07-23T03:04:23;20.40;66.90
45785;DHT22;31489;51.404;5.474;2022-07-23T03:06:49;20.40;67.00
45785;DHT22;31489;51.404;5.474;2022-07-23T03:09:15;20.40;67.10
45785;DHT22;31489;51.404;5.474;2022-07-23T03:11:40;20.40;67.10
45785;DHT22;31489;51.404;5.474;2022-07-23T03:14:06;20.30;67.10
45785;DHT22;31489;51.404;5.474;2022-07-23T03:16:33;20.30;67.20
45785;DHT22;31489;51.404;5.474;2022-07-23T03:18:58;20.30;67.20
45785;DHT22;31489;51.404;5.474;2022-07-23T03:21:24;20.30;67.20
45785;DHT22;31489;51.404;5.474;2022-07-23T03:23:50;20.20;67.30
45785;DHT22;31489;51.404;5.474;2022-07-23T03:26:19;20.20;67.30
45785;DHT22;31489;51.404;5.474;2022-07-23T03:28:45;20.20;67.40
45785;DHT22;31489;51.404;5.474;2022-07-23T03:31:10;20.20;67.30
45785;DHT22;31489;51.404;5.474;2022-07-23T03:33:36;20.20;67.40
45785;DHT22;31489;51.404;5.474;2022-07-23T03:36:02;20.10;67.40
45785;DHT22;31489;51.404;5.474;2022-07-23T03:38:28;20.10;67.40
45785;DHT22;31489;51.404;5.474;2022-07-23T03:40:54;20.10;67.50
45785;DHT22;31489;51.404;5.474;2022-07-23T03:43:19;20.10;67.60
45785;DHT22;31489;51.404;5.474;2022-07-23T03:45:45;20.10;67.60
45785;DHT22;31489;51.404;5.474;2022-07-23T03:48:11;20.10;67.60
45785;DHT22;31489;51.404;5.474;2022-07-23T03:50:37;20.10;67.70
45785;DHT22;31489;51.404;5.474;2022-07-23T03:53:02;20.00;67.60
45785;DHT22;31489;51.404;5.474;2022-07-23T03:55:28;20.00;67.70
45785;DHT22;31489;51.404;5.474;2022-07-23T03:57:54;20.00;67.70
45785;DHT22;31489;51.404;5.474;2022-07-23T04:00:20;19.90;67.70
45785;DHT22;31489;51.404;5.474;2022-07-23T04:02:46;19.90;67.70
45785;DHT22;31489;51.404;5.474;2022-07-23T04:05:12;19.90;67.80
45785;DHT22;31489;51.404;5.474;2022-07-23T04:07:38;19.90;67.80
45785;DHT22;31489;51.404;5.474;2022-07-23T04:10:04;19.90;67.90
45785;DHT22;31489;51.404;5.474;2022-07-23T04:12:30;19.90;68.00
45785;DHT22;31489;51.404;5.474;2022-07-23T04:14:56;19.90;68.00
45785;DHT22;31489;51.404;5.474;2022-07-23T04:17:22;19.90;68.10
45785;DHT22;31489;51.404;5.474;2022-07-23T04:19:48;19.90;68.20
45785;DHT22;31489;51.404;5.474;2022-07-23T04:22:14;19.80;68.20
45785;DHT22;31489;51.404;5.474;2022-07-23T04:24:39;19.80;68.30
45785;DHT22;31489;51.404;5.474;2022-07-23T04:27:05;19.80;68.40
45785;DHT22;31489;51.404;5.474;2022-07-23T04:29:31;19.80;68.50
45785;DHT22;31489;51.404;5.474;2022-07-23T04:31:57;19.80;68.50
45785;DHT22;31489;51.404;5.474;2022-07-23T04:34:22;19.80;68.60
45785;DHT22;31489;51.404;5.474;2022-07-23T04:36:48;19.80;68.60
45785;DHT22;31489;51.404;5.474;2022-07-23T04:39:14;19.80;68.70
45785;DHT22;31489;51.404;5.474;2022-07-23T04:41:40;19.80;68.70
45785;DHT22;31489;51.404;5.474;2022-07-23T04:44:06;19.80;68.80
45785;DHT22;31489;51.404;5.474;2022-07-23T04:46:32;19.80;68.90
45785;DHT22;31489;51.404;5.474;2022-07-23T04:48:58;19.80;69.00
45785;DHT22;31489;51.404;5.474;2022-07-23T04:51:24;19.80;69.10
45785;DHT22;31489;51.404;5.474;2022-07-23T04:53:50;19.80;69.20
45785;DHT22;31489;51.404;5.474;2022-07-23T04:56:15;19.80;69.30
45785;DHT22;31489;51.404;5.474;2022-07-23T04:58:41;19.80;69.30
45785;DHT22;31489;51.404;5.474;2022-07-23T05:01:07;19.80;69.30
45785;DHT22;31489;51.404;5.474;2022-07-23T05:03:33;19.80;69.40
45785;DHT22;31489;51.404;5.474;2022-07-23T05:05:58;19.80;69.40
45785;DHT22;31489;51.404;5.474;2022-07-23T05:08:24;19.80;69.50
45785;DHT22;31489;51.404;5.474;2022-07-23T05:10:50;19.80;69.60
45785;DHT22;31489;51.404;5.474;2022-07-23T05:13:16;19.90;69.70
45785;DHT22;31489;51.404;5.474;2022-07-23T05:15:43;19.90;69.80
45785;DHT22;31489;51.404;5.474;2022-07-23T05:18:09;19.90;69.70
45785;DHT22;31489;51.404;5.474;2022-07-23T05:20:35;19.90;69.80
45785;DHT22;31489;51.404;5.474;2022-07-23T05:23:01;19.90;70.00
45785;DHT22;31489;51.404;5.474;2022-07-23T05:25:26;19.90;70.00
45785;DHT22;31489;51.404;5.474;2022-07-23T05:27:52;20.00;70.10
45785;DHT22;31489;51.404;5.474;2022-07-23T05:30:18;20.00;70.10
45785;DHT22;31489;51.404;5.474;2022-07-23T05:32:43;20.00;70.20
45785;DHT22;31489;51.404;5.474;2022-07-23T05:35:09;20.00;70.20
45785;DHT22;31489;51.404;5.474;2022-07-23T05:37:35;20.10;70.30
45785;DHT22;31489;51.404;5.474;2022-07-23T05:40:06;20.10;70.20
45785;DHT22;31489;51.404;5.474;2022-07-23T05:42:33;20.10;70.40
45785;DHT22;31489;51.404;5.474;2022-07-23T05:44:59;20.10;70.30
45785;DHT22;31489;51.404;5.474;2022-07-23T05:47:25;20.20;70.40
45785;DHT22;31489;51.404;5.474;2022-07-23T05:49:50;20.20;70.40
45785;DHT22;31489;51.404;5.474;2022-07-23T05:52:16;20.20;70.40
45785;DHT22;31489;51.404;5.474;2022-07-23T05:54:42;20.20;70.40
45785;DHT22;31489;51.404;5.474;2022-07-23T05:57:07;20.30;70.50
45785;DHT22;31489;51.404;5.474;2022-07-23T05:59:33;20.30;70.50
45785;DHT22;31489;51.404;5.474;2022-07-23T06:01:59;20.30;70.60
45785;DHT22;31489;51.404;5.474;2022-07-23T06:04:25;20.40;70.50
45785;DHT22;31489;51.404;5.474;2022-07-23T06:06:51;20.30;70.50
45785;DHT22;31489;51.404;5.474;2022-07-23T06:09:16;20.40;70.40
45785;DHT22;31489;51.404;5.474;2022-07-23T06:11:42;20.40;70.20
45785;DHT22;31489;51.404;5.474;2022-07-23T06:14:08;20.50;70.10
45785;DHT22;31489;51.404;5.474;2022-07-23T06:16:33;20.50;70.20
45785;DHT22;31489;51.404;5.474;2022-07-23T06:18:59;20.50;70.10
45785;DHT22;31489;51.404;5.474;2022-07-23T06:21:25;20.50;69.90
45785;DHT22;31489;51.404;5.474;2022-07-23T06:23:50;20.60;69.90
45785;DHT22;31489;51.404;5.474;2022-07-23T06:26:16;20.60;69.50
45785;DHT22;31489;51.404;5.474;2022-07-23T06:28:42;20.60;69.60
45785;DHT22;31489;51.404;5.474;2022-07-23T06:31:07;20.60;69.90
45785;DHT22;31489;51.404;5.474;2022-07-23T06:33:33;20.70;69.80
45785;DHT22;31489;51.404;5.474;2022-07-23T06:35:59;20.70;69.20
45785;DHT22;31489;51.404;5.474;2022-07-23T06:38:25;20.70;69.50
45785;DHT22;31489;51.404;5.474;2022-07-23T06:40:51;20.80;69.60
45785;DHT22;31489;51.404;5.474;2022-07-23T06:43:16;20.80;69.20
45785;DHT22;31489;51.404;5.474;2022-07-23T06:45:42;20.90;69.00
45785;DHT22;31489;51.404;5.474;2022-07-23T06:48:08;20.90;68.90
45785;DHT22;31489;51.404;5.474;2022-07-23T06:50:34;21.00;68.40
45785;DHT22;31489;51.404;5.474;2022-07-23T06:53:00;21.00;68.30
45785;DHT22;31489;51.404;5.474;2022-07-23T06:55:26;21.00;68.30
45785;DHT22;31489;51.404;5.474;2022-07-23T06:57:51;21.10;68.30
45785;DHT22;31489;51.404;5.474;2022-07-23T07:00:17;21.10;68.20
45785;DHT22;31489;51.404;5.474;2022-07-23T07:02:43;21.10;67.70
45785;DHT22;31489;51.404;5.474;2022-07-23T07:05:08;21.20;68.00
45785;DHT22;31489;51.404;5.474;2022-07-23T07:07:34;21.20;67.40
45785;DHT22;31489;51.404;5.474;2022-07-23T07:10:01;21.30;67.30
45785;DHT22;31489;51.404;5.474;2022-07-23T07:12:28;21.30;66.50
45785;DHT22;31489;51.404;5.474;2022-07-23T07:14:53;21.30;66.30
45785;DHT22;31489;51.404;5.474;2022-07-23T07:17:19;21.40;66.30
45785;DHT22;31489;51.404;5.474;2022-07-23T07:19:44;21.50;66.30
45785;DHT22;31489;51.404;5.474;2022-07-23T07:22:10;21.40;66.10
45785;DHT22;31489;51.404;5.474;2022-07-23T07:24:36;21.50;66.20
45785;DHT22;31489;51.404;5.474;2022-07-23T07:27:02;21.50;65.50
45785;DHT22;31489;51.404;5.474;2022-07-23T07:29:28;21.60;65.80
45785;DHT22;31489;51.404;5.474;2022-07-23T07:31:54;21.60;65.90
45785;DHT22;31489;51.404;5.474;2022-07-23T07:34:20;21.70;65.60
45785;DHT22;31489;51.404;5.474;2022-07-23T07:36:45;21.70;65.30
45785;DHT22;31489;51.404;5.474;2022-07-23T07:39:14;21.70;65.30
45785;DHT22;31489;51.404;5.474;2022-07-23T07:41:39;21.80;65.10
45785;DHT22;31489;51.404;5.474;2022-07-23T07:44:05;21.80;64.60
45785;DHT22;31489;51.404;5.474;2022-07-23T07:46:31;21.90;64.70
45785;DHT22;31489;51.404;5.474;2022-07-23T07:48:56;21.90;64.20
45785;DHT22;31489;51.404;5.474;2022-07-23T07:51:22;21.90;64.60
45785;DHT22;31489;51.404;5.474;2022-07-23T07:53:48;22.00;64.20
45785;DHT22;31489;51.404;5.474;2022-07-23T07:56:13;22.00;64.10
45785;DHT22;31489;51.404;5.474;2022-07-23T07:58:39;22.00;63.80
45785;DHT22;31489;51.404;5.474;2022-07-23T08:01:05;22.00;63.70
45785;DHT22;31489;51.404;5.474;2022-07-23T08:03:30;22.10;63.60
45785;DHT22;31489;51.404;5.474;2022-07-23T08:05:56;22.20;63.60
45785;DHT22;31489;51.404;5.474;2022-07-23T08:08:22;22.20;63.20
45785;DHT22;31489;51.404;5.474;2022-07-23T08:10:47;22.20;63.20
45785;DHT22;31489;51.404;5.474;2022-07-23T08:13:15;22.30;62.90
45785;DHT22;31489;51.404;5.474;2022-07-23T08:15:41;22.30;63.60
45785;DHT22;31489;51.404;5.474;2022-07-23T08:18:06;22.30;62.70
45785;DHT22;31489;51.404;5.474;2022-07-23T08:20:32;22.40;62.80
45785;DHT22;31489;51.404;5.474;2022-07-23T08:23:02;22.40;63.20
45785;DHT22;31489;51.404;5.474;2022-07-23T08:25:35;22.50;63.00
45785;DHT22;31489;51.404;5.474;2022-07-23T08:28:02;22.50;62.70
45785;DHT22;31489;51.404;5.474;2022-07-23T08:30:28;22.60;62.40
45785;DHT22;31489;51.404;5.474;2022-07-23T08:32:57;22.60;62.00
45785;DHT22;31489;51.404;5.474;2022-07-23T08:35:27;22.60;62.10
45785;DHT22;31489;51.404;5.474;2022-07-23T08:37:53;22.70;61.50
45785;DHT22;31489;51.404;5.474;2022-07-23T08:40:18;22.70;61.60
45785;DHT22;31489;51.404;5.474;2022-07-23T08:42:47;22.70;60.60
45785;DHT22;31489;51.404;5.474;2022-07-23T08:45:16;22.80;60.20
45785;DHT22;31489;51.404;5.474;2022-07-23T08:47:43;22.80;60.20
45785;DHT22;31489;51.404;5.474;2022-07-23T08:50:10;22.90;59.80
45785;DHT22;31489;51.404;5.474;2022-07-23T08:52:36;22.90;59.90
45785;DHT22;31489;51.404;5.474;2022-07-23T08:55:03;23.00;59.90
45785;DHT22;31489;51.404;5.474;2022-07-23T08:57:28;23.00;60.10
45785;DHT22;31489;51.404;5.474;2022-07-23T08:59:54;23.00;59.90
45785;DHT22;31489;51.404;5.474;2022-07-23T09:02:20;23.10;60.00
45785;DHT22;31489;51.404;5.474;2022-07-23T09:04:45;23.10;59.90
45785;DHT22;31489;51.404;5.474;2022-07-23T09:07:11;23.20;61.10
45785;DHT22;31489;51.404;5.474;2022-07-23T09:09:37;23.30;61.00
45785;DHT22;31489;51.404;5.474;2022-07-23T09:12:07;23.30;61.20
45785;DHT22;31489;51.404;5.474;2022-07-23T09:14:39;23.40;59.40
45785;DHT22;31489;51.404;5.474;2022-07-23T09:17:09;23.50;58.20
45785;DHT22;31489;51.404;5.474;2022-07-23T09:19:35;23.50;58.50
45785;DHT22;31489;51.404;5.474;2022-07-23T09:22:19;23.60;59.00
45785;DHT22;31489;51.404;5.474;2022-07-23T09:27:56;23.70;60.60
45785;DHT22;31489;51.404;5.474;2022-07-23T09:30:25;23.80;58.20
45785;DHT22;31489;51.404;5.474;2022-07-23T09:33:11;23.90;59.10
45785;DHT22;31489;51.404;5.474;2022-07-23T09:35:56;24.00;58.20
45785;DHT22;31489;51.404;5.474;2022-07-23T09:38:23;24.00;57.80
45785;DHT22;31489;51.404;5.474;2022-07-23T09:41:08;24.10;58.70
45785;DHT22;31489;51.404;5.474;2022-07-23T09:43:35;24.20;58.40
45785;DHT22;31489;51.404;5.474;2022-07-23T09:48:42;24.20;58.50
45785;DHT22;31489;51.404;5.474;2022-07-23T09:51:08;24.30;58.10
45785;DHT22;31489;51.404;5.474;2022-07-23T09:53:34;24.40;59.30
45785;DHT22;31489;51.404;5.474;2022-07-23T09:56:00;24.50;58.80
45785;DHT22;31489;51.404;5.474;2022-07-23T09:58:26;24.60;58.10
45785;DHT22;31489;51.404;5.474;2022-07-23T10:00:55;24.60;56.80
45785;DHT22;31489;51.404;5.474;2022-07-23T10:03:23;24.70;57.00
45785;DHT22;31489;51.404;5.474;2022-07-23T10:05:50;24.80;56.30
45785;DHT22;31489;51.404;5.474;2022-07-23T10:08:18;24.90;57.60
45785;DHT22;31489;51.404;5.474;2022-07-23T10:10:45;24.90;56.00
45785;DHT22;31489;51.404;5.474;2022-07-23T10:13:12;25.00;57.40
45785;DHT22;31489;51.404;5.474;2022-07-23T10:15:40;25.00;56.80
45785;DHT22;31489;51.404;5.474;2022-07-23T10:18:06;25.10;56.40
45785;DHT22;31489;51.404;5.474;2022-07-23T10:20:32;25.20;57.20
45785;DHT22;31489;51.404;5.474;2022-07-23T10:23:04;25.20;56.70
45785;DHT22;31489;51.404;5.474;2022-07-23T10:25:39;25.30;56.00
45785;DHT22;31489;51.404;5.474;2022-07-23T10:28:22;25.40;57.70
45785;DHT22;31489;51.404;5.474;2022-07-23T10:31:31;25.50;56.60
45785;DHT22;31489;51.404;5.474;2022-07-23T10:37:14;25.70;56.60
45785;DHT22;31489;51.404;5.474;2022-07-23T10:39:47;25.80;57.50
45785;DHT22;31489;51.404;5.474;2022-07-23T10:42:16;25.90;57.30
45785;DHT22;31489;51.404;5.474;2022-07-23T10:44:44;25.90;56.80
45785;DHT22;31489;51.404;5.474;2022-07-23T10:47:11;26.00;56.60
45785;DHT22;31489;51.404;5.474;2022-07-23T10:49:44;26.10;56.60
45785;DHT22;31489;51.404;5.474;2022-07-23T10:52:24;26.20;56.90
45785;DHT22;31489;51.404;5.474;2022-07-23T10:54:52;26.40;56.60
45785;DHT22;31489;51.404;5.474;2022-07-23T10:57:21;26.60;57.90
45785;DHT22;31489;51.404;5.474;2022-07-23T11:02:39;27.20;55.30
45785;DHT22;31489;51.404;5.474;2022-07-23T11:05:07;27.70;57.70
45785;DHT22;31489;51.404;5.474;2022-07-23T11:07:34;28.20;58.50
45785;DHT22;31489;51.404;5.474;2022-07-23T11:10:00;28.60;57.70
45785;DHT22;31489;51.404;5.474;2022-07-23T11:15:05;29.50;55.10
45785;DHT22;31489;51.404;5.474;2022-07-23T11:17:39;29.90;53.10
45785;DHT22;31489;51.404;5.474;2022-07-23T11:20:26;30.30;53.10
45785;DHT22;31489;51.404;5.474;2022-07-23T11:22:56;30.70;51.80
45785;DHT22;31489;51.404;5.474;2022-07-23T11:27:49;31.10;51.20
45785;DHT22;31489;51.404;5.474;2022-07-23T11:35:44;31.70;46.30
45785;DHT22;31489;51.404;5.474;2022-07-23T11:38:17;31.80;46.90
45785;DHT22;31489;51.404;5.474;2022-07-23T11:40:46;31.90;46.00
45785;DHT22;31489;51.404;5.474;2022-07-23T11:43:12;32.00;47.80
45785;DHT22;31489;51.404;5.474;2022-07-23T11:45:47;32.00;48.00
45785;DHT22;31489;51.404;5.474;2022-07-23T11:48:22;32.00;45.40
45785;DHT22;31489;51.404;5.474;2022-07-23T11:50:50;32.00;44.90
45785;DHT22;31489;51.404;5.474;2022-07-23T11:53:33;31.90;45.00
45785;DHT22;31489;51.404;5.474;2022-07-23T11:56:10;31.70;44.10
45785;DHT22;31489;51.404;5.474;2022-07-23T11:58:36;31.70;44.80
45785;DHT22;31489;51.404;5.474;2022-07-23T12:01:02;31.70;46.20
45785;DHT22;31489;51.404;5.474;2022-07-23T12:03:28;31.60;46.00
45785;DHT22;31489;51.404;5.474;2022-07-23T12:05:59;31.50;45.30
45785;DHT22;31489;51.404;5.474;2022-07-23T12:08:26;31.50;42.60
45785;DHT22;31489;51.404;5.474;2022-07-23T12:10:51;31.50;45.40
45785;DHT22;31489;51.404;5.474;2022-07-23T12:13:19;31.50;45.20
45785;DHT22;31489;51.404;5.474;2022-07-23T12:15:51;31.50;44.90
45785;DHT22;31489;51.404;5.474;2022-07-23T12:18:20;31.50;43.90
45785;DHT22;31489;51.404;5.474;2022-07-23T12:20:49;31.50;45.20
45785;DHT22;31489;51.404;5.474;2022-07-23T12:23:16;31.50;44.90
45785;DHT22;31489;51.404;5.474;2022-07-23T12:25:43;31.60;44.50
45785;DHT22;31489;51.404;5.474;2022-07-23T12:28:12;31.60;43.70
45785;DHT22;31489;51.404;5.474;2022-07-23T12:30:45;31.70;42.20
45785;DHT22;31489;51.404;5.474;2022-07-23T12:33:14;31.70;43.20
45785;DHT22;31489;51.404;5.474;2022-07-23T12:35:45;31.80;43.70
45785;DHT22;31489;51.404;5.474;2022-07-23T12:38:15;31.90;42.00
45785;DHT22;31489;51.404;5.474;2022-07-23T12:40:49;32.00;43.60
45785;DHT22;31489;51.404;5.474;2022-07-23T12:43:29;32.00;43.90
45785;DHT22;31489;51.404;5.474;2022-07-23T12:46:25;32.10;42.80
45785;DHT22;31489;51.404;5.474;2022-07-23T12:48:52;32.20;41.90
45785;DHT22;31489;51.404;5.474;2022-07-23T12:51:21;32.20;43.40
45785;DHT22;31489;51.404;5.474;2022-07-23T12:53:50;32.20;41.50
45785;DHT22;31489;51.404;5.474;2022-07-23T12:56:37;32.30;42.80
45785;DHT22;31489;51.404;5.474;2022-07-23T13:01:30;32.40;42.30
45785;DHT22;31489;51.404;5.474;2022-07-23T13:04:09;32.40;42.00
45785;DHT22;31489;51.404;5.474;2022-07-23T13:06:41;32.50;41.80
45785;DHT22;31489;51.404;5.474;2022-07-23T13:09:09;32.60;42.40
45785;DHT22;31489;51.404;5.474;2022-07-23T13:11:37;32.60;41.10
45785;DHT22;31489;51.404;5.474;2022-07-23T13:14:06;32.60;41.80
45785;DHT22;31489;51.404;5.474;2022-07-23T13:16:37;32.60;39.80
45785;DHT22;31489;51.404;5.474;2022-07-23T13:19:03;32.60;39.90
45785;DHT22;31489;51.404;5.474;2022-07-23T13:21:29;32.70;40.60
45785;DHT22;31489;51.404;5.474;2022-07-23T13:23:56;32.70;40.70
45785;DHT22;31489;51.404;5.474;2022-07-23T13:26:22;32.70;39.90
45785;DHT22;31489;51.404;5.474;2022-07-23T13:28:48;32.70;41.10
45785;DHT22;31489;51.404;5.474;2022-07-23T13:31:14;32.70;42.40
45785;DHT22;31489;51.404;5.474;2022-07-23T13:33:42;32.80;41.40
45785;DHT22;31489;51.404;5.474;2022-07-23T13:36:08;32.80;40.60
45785;DHT22;31489;51.404;5.474;2022-07-23T13:38:34;32.90;40.60
45785;DHT22;31489;51.404;5.474;2022-07-23T13:41:00;32.90;40.20
45785;DHT22;31489;51.404;5.474;2022-07-23T13:43:26;33.00;41.60
45785;DHT22;31489;51.404;5.474;2022-07-23T13:45:52;33.00;41.80
45785;DHT22;31489;51.404;5.474;2022-07-23T13:48:19;33.10;41.70
45785;DHT22;31489;51.404;5.474;2022-07-23T13:50:46;33.10;41.80
45785;DHT22;31489;51.404;5.474;2022-07-23T13:53:14;33.20;41.00
45785;DHT22;31489;51.404;5.474;2022-07-23T13:55:41;33.20;40.90
45785;DHT22;31489;51.404;5.474;2022-07-23T13:58:09;33.20;41.80
45785;DHT22;31489;51.404;5.474;2022-07-23T14:00:37;33.20;40.20
45785;DHT22;31489;51.404;5.474;2022-07-23T14:03:03;33.30;40.00
45785;DHT22;31489;51.404;5.474;2022-07-23T14:05:29;33.40;41.50
45785;DHT22;31489;51.404;5.474;2022-07-23T14:07:55;33.40;41.10
45785;DHT22;31489;51.404;5.474;2022-07-23T14:10:22;33.50;42.10
45785;DHT22;31489;51.404;5.474;2022-07-23T14:12:49;33.50;42.30
45785;DHT22;31489;51.404;5.474;2022-07-23T14:15:15;33.60;42.30
45785;DHT22;31489;51.404;5.474;2022-07-23T14:17:43;33.70;42.00
45785;DHT22;31489;51.404;5.474;2022-07-23T14:20:10;33.70;41.70
45785;DHT22;31489;51.404;5.474;2022-07-23T14:22:36;33.80;41.80
45785;DHT22;31489;51.404;5.474;2022-07-23T14:25:02;33.80;41.50
45785;DHT22;31489;51.404;5.474;2022-07-23T14:27:28;33.90;40.90
45785;DHT22;31489;51.404;5.474;2022-07-23T14:29:55;33.90;39.90
45785;DHT22;31489;51.404;5.474;2022-07-23T14:32:21;33.90;40.30
45785;DHT22;31489;51.404;5.474;2022-07-23T14:34:47;33.90;38.40
45785;DHT22;31489;51.404;5.474;2022-07-23T14:37:14;33.90;38.70
45785;DHT22;31489;51.404;5.474;2022-07-23T14:39:41;33.90;38.40
45785;DHT22;31489;51.404;5.474;2022-07-23T14:42:08;33.90;38.00
45785;DHT22;31489;51.404;5.474;2022-07-23T14:44:35;33.80;38.90
45785;DHT22;31489;51.404;5.474;2022-07-23T14:47:02;33.80;37.40
45785;DHT22;31489;51.404;5.474;2022-07-23T14:49:30;33.60;38.20
45785;DHT22;31489;51.404;5.474;2022-07-23T14:51:56;33.50;37.50
45785;DHT22;31489;51.404;5.474;2022-07-23T14:54:22;33.40;38.60
45785;DHT22;31489;51.404;5.474;2022-07-23T14:56:47;33.30;37.70
45785;DHT22;31489;51.404;5.474;2022-07-23T14:59:13;33.30;38.20
45785;DHT22;31489;51.404;5.474;2022-07-23T15:01:39;33.30;39.20
45785;DHT22;31489;51.404;5.474;2022-07-23T15:04:06;33.20;37.70
45785;DHT22;31489;51.404;5.474;2022-07-23T15:06:32;33.20;38.40
45785;DHT22;31489;51.404;5.474;2022-07-23T15:08:58;33.10;37.80
45785;DHT22;31489;51.404;5.474;2022-07-23T15:11:28;33.10;37.60
45785;DHT22;31489;51.404;5.474;2022-07-23T15:13:56;33.10;38.50
45785;DHT22;31489;51.404;5.474;2022-07-23T15:16:22;33.10;38.40
45785;DHT22;31489;51.404;5.474;2022-07-23T15:18:48;33.10;38.80
45785;DHT22;31489;51.404;5.474;2022-07-23T15:21:14;33.10;37.60
45785;DHT22;31489;51.404;5.474;2022-07-23T15:23:39;33.10;38.20
45785;DHT22;31489;51.404;5.474;2022-07-23T15:26:06;33.00;37.70
45785;DHT22;31489;51.404;5.474;2022-07-23T15:28:31;33.00;38.30
45785;DHT22;31489;51.404;5.474;2022-07-23T15:30:57;33.00;39.00
45785;DHT22;31489;51.404;5.474;2022-07-23T15:33:23;32.90;38.80
45785;DHT22;31489;51.404;5.474;2022-07-23T15:35:49;32.90;37.80
45785;DHT22;31489;51.404;5.474;2022-07-23T15:38:15;32.80;38.40
45785;DHT22;31489;51.404;5.474;2022-07-23T15:40:41;32.80;38.10
45785;DHT22;31489;51.404;5.474;2022-07-23T15:43:06;32.70;37.60
45785;DHT22;31489;51.404;5.474;2022-07-23T15:45:32;32.70;38.50
45785;DHT22;31489;51.404;5.474;2022-07-23T15:47:58;32.60;37.70
45785;DHT22;31489;51.404;5.474;2022-07-23T15:50:24;32.50;37.60
45785;DHT22;31489;51.404;5.474;2022-07-23T15:52:50;32.40;38.30
45785;DHT22;31489;51.404;5.474;2022-07-23T15:55:15;32.40;37.90